• Join FlightAware (Why Join?)
  • Login
  • US Flag 
12:10PM EDT


 

Airport Tracker/Info


-or-


 

Live Flight TrackerFlight Track Log ✈ N6GD ✈ 07-Jun-2014 ✈ KMIA - KTKI

Flight Track Log - Related Links

Times and Time Zones

All times are in EDT time to prevent confusion due to time zone crossing. See the N6GD flight status page for this flight to view local times or setup timezone preferences in your user account.

Time Position Orientation Groundspeed Altitude Reporting Facility
EDT Latitude Longitude Course Direction KTS MPH feet Rate Location/Type
12:34PM 25.8044 -80.2511 87° East 190 219 1,200  Level Miami Center
12:34PM 25.8061 -80.2264 86° East 193 222 2,400 2,400 Climbing Miami Center
12:35PM 25.8119 -80.1889 80° East 196 226 3,700 2,400 Climbing Miami Center
12:35PM 25.8306 -80.1703 42° Northeast 230 265 4,800 2,760 Climbing Miami Center
12:36PM 25.8733 -80.1953 332° Northwest 244 281 6,600 1,980 Climbing Miami Center
12:37PM 25.9042 -80.2678 295° West 261 300 8,500 1,920 Climbing Miami Center
12:37PM 25.9136 -80.2833 304° West 282 325 9,000 1,860 Climbing Miami Center
12:38PM 25.9436 -80.3442 299° West 286 329 10,500 1,860 Climbing Miami Center
12:39PM 25.9842 -80.4278 298° West 307 353 12,600 1,860 Climbing Miami Center
12:40PM 26.0364 -80.5306 300° West 321 369 14,400 1,800 Climbing Miami Center
12:41PM 26.0819 -80.6228 299° West 338 389 16,400 1,620 Climbing Miami Center
12:42PM 26.1464 -80.6950 315° West 334 384 17,800 1,440 Climbing Miami Center
12:43PM 26.2167 -80.7686 317° Northwest 343 395 19,400 1,320 Climbing Miami Center
12:44PM 26.2911 -80.8425 318° Northwest 359 413 20,600 1,440 Climbing Miami Center
12:45PM 26.3831 -80.9361 318° Northwest 370 426 22,400 1,440 Climbing Miami Center
12:46PM 26.4611 -81.0167 317° Northwest 378 435 23,700 1,200 Climbing Miami Center
12:47PM 26.5453 -81.1017 318° Northwest 382 440 25,000 1,200 Climbing Miami Center
12:48PM 26.6292 -81.1881 317° Northwest 389 448 26,300 1,200 Climbing Miami Center
12:49PM 26.7147 -81.2744 318° Northwest 392 451 27,600 1,080 Climbing Miami Center
12:50PM 26.8000 -81.3631 317° Northwest 401 461 28,600 900 Climbing Miami Center
12:52PM 26.8861 -81.4608 315° West 417 480 29,500 840 Climbing Miami Center
12:53PM 26.9733 -81.5633 314° West 432 497 30,400 840 Climbing Miami Center
12:54PM 27.0475 -81.6689 308° West 444 511 31,300 840 Climbing Miami Center
12:55PM 27.0933 -81.8072 290° West 452 520 32,200 840 Climbing Miami Center
12:56PM 27.1278 -81.9514 285° West 458 527 33,100 960 Climbing Miami Center
12:57PM 27.1625 -82.0967 285° West 464 534 34,200 1,020 Climbing Miami Center
12:58PM 27.1983 -82.2439 285° West 464 534 35,300 840 Climbing Miami Center
12:59PM 27.2308 -82.3822 285° West 461 531 36,000 300 Climbing Miami Center
01:00PM 27.2667 -82.5344 285° West 461 531 36,000  Level Miami Center
01:01PM 27.3028 -82.6803 286° West 462 532 36,000  Level Miami Center
01:02PM 27.3361 -82.8261 284° West 462 532 36,000  Level Miami Center
01:03PM 27.3644 -82.9489 285° West 464 534 36,000 120 Level Miami Center
01:04PM 27.3978 -83.0883 285° West 464 534 36,300 540 Climbing Miami Center
01:05PM 27.4386 -83.2556 285° West 463 533 37,200 720 Climbing Miami Center
01:06PM 27.4700 -83.3931 284° West 456 525 37,900 360 Climbing Miami Center
01:07PM 27.5006 -83.5308 284° West 452 520 38,000  Climbing Miami Center
01:08PM 27.5339 -83.6717 285° West 460 529 37,900  Descending Miami Center
01:09PM 27.5650 -83.8086 284° West 456 525 38,000  Climbing Miami Center
01:10PM 27.6025 -83.9744 284° West 454 522 38,000  Level Miami Center
01:11PM 27.6339 -84.1117 285° West 454 522 38,000  Level Miami Center
01:12PM 27.6642 -84.2483 284° West 451 519 38,000  Level Miami Center
01:13PM 27.6942 -84.3864 284° West 452 520 38,000  Level Miami Center
01:14PM 27.7103 -84.4794 281° West 453 521 38,000  Level Jacksonville Center
01:15PM 27.7564 -84.6372 288° West 459 528 38,000  Level Jacksonville Center
01:16PM 27.7772 -84.7758 280° West 453 521 38,000  Level Jacksonville Center
01:17PM 27.8067 -84.9056 284° West 447 514 38,000  Level Jacksonville Center
01:18PM 27.8378 -85.0422 284° West 456 525 38,000  Level Jacksonville Center
01:19PM 27.8689 -85.1814 284° West 451 519 38,000  Level Jacksonville Center
01:20PM 27.9017 -85.3253 284° West 457 526 38,000  Level Jacksonville Center
01:21PM 27.9428 -85.4603 289° West 457 526 38,000  Level Jacksonville Center
01:22PM 27.9839 -85.5881 290° West 457 526 38,000  Level Jacksonville Center
01:23PM 28.0228 -85.7278 288° West 457 526 38,000  Level Jacksonville Center
01:24PM 28.0636 -85.8583 290° West 457 526 38,000  Level Jacksonville Center
01:25PM 28.1064 -85.9936 290° West 452 520 38,000  Level Jacksonville Center
01:26PM 28.1447 -86.1289 288° West 452 520 38,000  Level Jacksonville Center
01:27PM 28.1811 -86.2525 288° West 441 507 38,000  Level Jacksonville Center
01:28PM 28.2214 -86.3833 289° West 441 507 38,000  Level Jacksonville Center
01:29PM 28.2575 -86.5142 287° West 441 507 38,000  Level Jacksonville Center
01:30PM 28.3017 -86.6500 290° West 447 514 38,000  Level Jacksonville Center
01:31PM 28.3414 -86.7883 288° West 448 516 38,000  Level Jacksonville Center
01:32PM 28.3769 -86.9172 287° West 448 516 38,000  Level Jacksonville Center
01:33PM 28.4167 -87.0508 289° West 453 521 38,000  Level Jacksonville Center
01:34PM 28.4533 -87.1778 288° West 448 516 38,000  Level Houston Center
01:35PM 28.4928 -87.3139 288° West 453 521 38,000  Level Houston Center
01:36PM 28.5319 -87.4481 288° West 453 521 38,000  Level Houston Center
01:37PM 28.5694 -87.5839 287° West 452 520 38,000  Level Houston Center
01:38PM 28.6086 -87.7181 288° West 451 519 38,000  Level Houston Center
01:39PM 28.6469 -87.8531 288° West 451 519 38,000  Level Houston Center
01:40PM 28.6922 -88.0144 288° West 449 517 38,000  Level Houston Center
01:41PM 28.7292 -88.1447 288° West 446 513 38,000  Level Houston Center
01:42PM 28.7664 -88.2789 288° West 446 513 38,000  Level Houston Center
01:43PM 28.8039 -88.4119 288° West 444 511 38,000  Level Houston Center
01:44PM 28.8411 -88.5464 288° West 444 511 38,000  Level Houston Center
01:45PM 28.8942 -88.7033 291° West 445 512 38,000  Level Houston Center
01:46PM 28.9686 -88.8161 307° West 446 513 38,000  Level Houston Center
01:47PM 29.0500 -88.9214 312° West 445 512 38,000  Level Houston Center
01:48PM 29.1294 -89.0292 310° West 445 512 38,000  Level Houston Center
01:49PM 29.2069 -89.1411 308° West 447 514 38,000  Level Houston Center
01:50PM 29.2794 -89.2578 305° West 448 516 38,000  Level Houston Center
01:52PM 29.3542 -89.3733 307° West 448 516 38,000  Level Houston Center
01:53PM 29.4417 -89.5133 306° West 450 518 38,000  Level Houston Center
01:54PM 29.5147 -89.6308 306° West 450 518 38,000  Level Houston Center
01:55PM 29.5883 -89.7483 306° West 450 518 38,000  Level Houston Center
01:56PM 29.6617 -89.8667 306° West 451 519 38,000  Level Houston Center
01:57PM 29.7358 -89.9850 306° West 453 521 38,000  Level Houston Center
01:58PM 29.8094 -90.1039 306° West 456 525 38,000  Level Houston Center
01:59PM 29.8986 -90.2475 306° West 456 525 38,000  Level Houston Center
02:00PM 29.9733 -90.3672 306° West 456 525 38,000  Level Houston Center
02:01PM 30.0464 -90.4864 305° West 456 525 38,000  Level Houston Center
02:02PM 30.1211 -90.6053 306° West 456 525 38,000  Level Houston Center
02:03PM 30.1931 -90.7239 305° West 455 524 38,000  Level Houston Center
02:04PM 30.2667 -90.8411 306° West 453 521 38,000  Level Houston Center
02:05PM 30.3383 -90.9606 305° West 453 521 38,000  Level Houston Center
02:06PM 30.4239 -91.1036 305° West 452 520 38,000  Level Houston Center
02:07PM 30.4967 -91.2228 305° West 452 520 38,000  Level Houston Center
02:08PM 30.5703 -91.3433 305° West 453 521 38,000  Level Houston Center
02:09PM 30.6361 -91.4564 304° West 453 521 38,000  Level Houston Center
02:10PM 30.7222 -91.5994 305° West 453 521 38,000  Level Houston Center
02:11PM 30.7933 -91.7203 304° West 453 521 38,000  Level Houston Center
02:12PM 30.8656 -91.8406 305° West 453 521 38,000  Level Houston Center
02:13PM 30.9383 -91.9603 305° West 453 521 38,000  Level Houston Center
02:14PM 31.0122 -92.0864 304° West 453 521 38,000  Level Houston Center
02:15PM 31.0833 -92.2072 305° West 452 520 38,000  Level Houston Center
02:16PM 31.1531 -92.3256 305° West 447 514 38,000  Level Houston Center
02:17PM 31.2372 -92.4683 305° West 444 511 38,000  Level Houston Center
02:18PM 31.2939 -92.5975 297° West 443 510 38,000  Level Houston Center
02:19PM 31.3439 -92.7303 294° West 443 510 38,000  Level Houston Center
02:20PM 31.3931 -92.8606 294° West 443 510 38,000  Level Houston Center
02:22PM 31.4428 -92.9922 294° West 443 510 38,000  Level Houston Center
02:23PM 31.5003 -93.1492 293° West 440 506 38,000  Level Houston Center
02:24PM 31.5481 -93.2778 294° West 437 503 38,000  Level Houston Center
02:25PM 31.5989 -93.4161 293° West 434 499 38,000  Level Houston Center
02:26PM 31.6461 -93.5447 293° West 431 496 38,000  Level Houston Center
02:27PM 31.6917 -93.6689 293° West 430 495 38,000  Level Houston Center
02:28PM 31.7378 -93.7947 293° West 427 491 38,000  Level Houston Center
02:29PM 31.7689 -93.9264 286° West 422 486 38,000  Level Houston Center
02:30PM 31.7964 -94.0658 283° West 425 489 38,000  Level Houston Center
02:31PM 31.8272 -94.2278 283° West 433 498 38,000  Level Houston Center
02:32PM 31.8542 -94.3672 283° West 438 504 38,000  Level Houston Center
02:33PM 31.8817 -94.5047 283° West 437 503 38,000 -60 Level Houston Center
02:34PM 31.9083 -94.6428 283° West 437 503 37,900 -960 Descending Houston Center
02:35PM 31.9397 -94.8083 283° West 436 502 36,100 -1,560 Descending Houston Center
02:36PM 31.9728 -94.9758 283° West 437 503 34,400 -1,380 Descending Fort Worth Center
02:37PM 31.9972 -95.1083 282° West 422 486 33,000 -1,380 Descending Fort Worth Center
02:38PM 32.0222 -95.2467 282° West 426 490 31,600 -1,380 Descending Fort Worth Center
02:39PM 32.0472 -95.3833 282° West 426 490 30,200 -1,500 Descending Fort Worth Center
02:40PM 32.0869 -95.5397 287° West 418 481 28,500 -1,620 Descending Fort Worth Center
02:41PM 32.1511 -95.6481 305° West 419 482 26,900 -1,740 Descending Fort Worth Center
02:42PM 32.2239 -95.7567 308° West 419 482 24,900 -1,920 Descending Fort Worth Center
02:43PM 32.2933 -95.8694 306° West 422 486 22,900 -2,280 Descending Fort Worth Center
02:45PM 32.3672 -95.9972 304° West 410 472 20,200 -2,820 Descending Fort Worth Center
02:46PM 32.4294 -96.1042 305° West 397 457 17,100 -3,360 Descending Fort Worth Center
02:47PM 32.4942 -96.2133 305° West 383 441 13,300 -3,360 Descending Fort Worth Center
02:48PM 32.5533 -96.3175 304° West 382 440 10,200 -2,220 Descending Fort Worth Center
02:49PM 32.6114 -96.4175 305° West 341 392 8,800 -1,260 Descending Fort Worth Center
02:50PM 32.6719 -96.4764 321° Northwest 289 333 7,700 -1,500 Descending Fort Worth Center
02:51PM 32.7594 -96.4950 350° North 297 342 5,800 -1,680 Descending Fort Worth Center
02:52PM 32.8364 -96.5114 350° North 284 327 4,300 -900 Descending Fort Worth Center
02:53PM 32.9106 -96.5281 349° North 276 318 4,000 -360 Descending Fort Worth Center
02:54PM 32.9897 -96.5439 350° North 272 313 3,600 -720 Descending Fort Worth Center
02:55PM 33.0669 -96.5483 357° North 267 307 2,600 -540 Descending Fort Worth Center
02:56PM 33.1322 -96.5483 360° North 229 264 2,500 -300 Descending Fort Worth Center
02:57PM 33.1881 -96.5394 North 203 234 2,000 -480 Descending Fort Worth Center
02:58PM 33.2258 -96.5633 332° Northwest 161 185 1,600 -540 Descending Fort Worth Center
02:59PM 33.1992 -96.5883 218° Southwest 131 151 900 -480 Descending Fort Worth Center
03:00PM 33.1661 -96.5908 184° South 128 147 700 -240 Descending Fort Worth Center